Accueil
METAR-TAF:

METAR-TAF

Aéroports :

Wemindji, Québec, Canada

latitude: 53-00-39N, longitude: 078-49-49W, altitude: 15 m

Observation

Le bulletin a été fait il y a 27 minutes, à 18:00 UTC
Vent 9 kt de ouest/sud-ouest, variant entre sud/sud-ouest et ouest
Température -14°C
Humidité 78%
Pression 1017 hPa
Visibilité: 2.4 km
Nuages épars à une hauteur de 1500 ft
Nuages fragmentés à une hauteur de 2400 ft
Ciel couvert à une hauteur de 3400 ft
neige faible

METAR: CYNC 201800Z 24009KT 210V280 1 1/2SM -SN SCT015 BKN024 OVC034 M14/M17 A3003 RMK SN2SF2SC2SC2 SLP172

Heure: 13:27 (18:27 UTC)


TAF: absent

Observations et prévisions météorologiques de plus de 4000 aéroports (messages METAR et TAF).

Les stations disponibles sont représentées par des disques jaunes et rouges sur la carte.

Passer la souris dessus pour voir le nom de la station.

Cliquer dessus pour voir les observations et prévisions météorologiques.

Pour changer de carte: cliquez sur les boutons verts avec une croix noire pour zoomer, sur le bouton vert avec un tiret pour effectuer un zoom arrière, ou sur les flèches vertes pour les cartes adjacentes.


METAR-TAF: